createdAt,value
2022-09-23T00:01:15.152Z,9.70
2022-09-23T00:03:44.974Z,9.60
2022-09-23T00:06:20.034Z,9.60
2022-09-23T00:08:49.434Z,9.60
2022-09-23T00:11:19.528Z,9.60
2022-09-23T00:13:48.845Z,9.40
2022-09-23T00:16:18.689Z,9.40
2022-09-23T00:18:45.686Z,9.40
2022-09-23T00:21:14.620Z,9.40
2022-09-23T00:23:43.050Z,9.60
2022-09-23T00:26:12.325Z,9.60
2022-09-23T00:28:39.401Z,9.70
2022-09-23T00:31:12.847Z,9.70
2022-09-23T00:33:40.707Z,9.80
2022-09-23T00:36:11.058Z,9.80
2022-09-23T00:38:38.818Z,9.90
2022-09-23T00:41:06.421Z,9.90
2022-09-23T00:43:42.187Z,9.70
2022-09-23T00:46:33.938Z,9.70
2022-09-23T00:49:05.644Z,9.60
2022-09-23T00:51:44.539Z,9.50
2022-09-23T00:54:11.619Z,9.50
2022-09-23T00:56:39.413Z,9.40
2022-09-23T00:59:09.678Z,9.30
2022-09-23T01:01:38.108Z,9.10
2022-09-23T01:04:06.812Z,9.10
2022-09-23T01:06:33.513Z,9.10
2022-09-23T01:09:00.175Z,9.20
2022-09-23T01:11:49.504Z,9.00
2022-09-23T01:14:40.663Z,8.80
2022-09-23T01:17:11.400Z,8.70
2022-09-23T01:20:17.748Z,8.80
2022-09-23T01:23:12.912Z,8.80
2022-09-23T01:26:03.905Z,8.80
2022-09-23T01:28:56.744Z,8.90
2022-09-23T01:31:39.499Z,8.80
2022-09-23T01:34:15.930Z,8.70
2022-09-23T01:36:55.273Z,8.70
2022-09-23T01:39:43.474Z,8.60
2022-09-23T01:42:26.334Z,8.50
2022-09-23T01:45:01.014Z,8.50
2022-09-23T01:47:36.384Z,8.50
2022-09-23T01:50:30.368Z,8.60
2022-09-23T01:53:01.468Z,8.50
2022-09-23T01:55:39.327Z,8.40
2022-09-23T01:58:08.395Z,8.50
2022-09-23T02:00:40.808Z,8.50
2022-09-23T02:03:27.447Z,8.50
2022-09-23T02:06:01.629Z,8.40
2022-09-23T02:08:44.459Z,8.50
2022-09-23T02:11:15.273Z,8.50
2022-09-23T02:13:53.438Z,8.40
2022-09-23T02:16:26.194Z,8.40
2022-09-23T02:18:58.215Z,8.50
2022-09-23T02:21:33.840Z,8.40
2022-09-23T02:24:14.640Z,8.50
2022-09-23T02:26:47.250Z,8.40
2022-09-23T02:29:42.034Z,8.40
2022-09-23T02:32:30.893Z,8.30
2022-09-23T02:35:18.105Z,8.30
2022-09-23T02:37:53.295Z,8.40
2022-09-23T02:40:38.746Z,8.50
2022-09-23T02:43:19.785Z,8.40
2022-09-23T02:45:47.442Z,8.50
2022-09-23T02:48:30.312Z,8.40
2022-09-23T02:50:59.072Z,8.40
2022-09-23T02:53:25.817Z,8.50
2022-09-23T02:55:52.589Z,8.50
2022-09-23T02:58:19.498Z,8.50
2022-09-23T03:01:19.095Z,8.40
2022-09-23T03:04:09.195Z,8.30
2022-09-23T03:07:01.332Z,8.40
2022-09-23T03:09:40.450Z,8.50
2022-09-23T03:12:15.955Z,8.60
2022-09-23T03:14:58.751Z,8.80
2022-09-23T03:17:31.508Z,8.80
2022-09-23T03:20:12.733Z,8.80
2022-09-23T03:23:02.474Z,8.80
2022-09-23T03:25:33.337Z,8.70
2022-09-23T03:28:01.713Z,8.70
2022-09-23T03:30:30.038Z,8.60
2022-09-23T03:33:00.440Z,8.50
2022-09-23T03:35:31.289Z,8.40
2022-09-23T03:38:11.984Z,8.50
2022-09-23T03:40:43.288Z,8.50
2022-09-23T03:43:13.263Z,8.50
2022-09-23T03:45:41.612Z,8.60
2022-09-23T03:48:08.670Z,8.60
2022-09-23T03:50:39.150Z,8.40
2022-09-23T03:53:06.753Z,8.50
2022-09-23T03:55:34.802Z,8.30
2022-09-23T03:58:03.182Z,8.40
2022-09-23T04:00:29.992Z,8.20
2022-09-23T04:02:57.240Z,8.20
2022-09-23T04:05:23.848Z,8.20
2022-09-23T04:07:51.106Z,8.00
2022-09-23T04:10:17.952Z,8.00
2022-09-23T04:12:44.699Z,8.10
2022-09-23T04:15:11.895Z,8.20
2022-09-23T04:17:38.589Z,8.30
2022-09-23T04:20:05.936Z,8.30
2022-09-23T04:22:34.421Z,8.10
2022-09-23T04:25:01.139Z,7.90
2022-09-23T04:27:27.743Z,7.80
2022-09-23T04:29:54.358Z,7.70
2022-09-23T04:32:21.073Z,7.70
2022-09-23T04:34:47.712Z,7.80
2022-09-23T04:37:14.364Z,7.90
2022-09-23T04:39:41.149Z,8.20
2022-09-23T04:42:08.019Z,8.10
2022-09-23T04:44:35.060Z,8.00
2022-09-23T04:47:02.008Z,8.10
2022-09-23T04:49:29.945Z,8.00
2022-09-23T04:51:56.617Z,8.10
2022-09-23T04:54:23.369Z,8.20
2022-09-23T04:56:50.141Z,8.30
2022-09-23T04:59:16.884Z,8.40
2022-09-23T05:01:43.769Z,8.40
2022-09-23T05:04:13.959Z,8.40
2022-09-23T05:06:44.107Z,8.40
2022-09-23T05:09:15.870Z,8.40
2022-09-23T05:11:43.414Z,8.50
2022-09-23T05:14:10.444Z,8.50
2022-09-23T05:16:37.670Z,8.50
2022-09-23T05:19:04.532Z,8.40
2022-09-23T05:21:31.898Z,8.30
2022-09-23T05:24:00.578Z,8.40
2022-09-23T05:26:30.111Z,8.40
2022-09-23T05:28:57.064Z,8.40
2022-09-23T05:31:25.847Z,8.40
2022-09-23T05:33:58.031Z,8.30
2022-09-23T05:36:26.206Z,8.30
2022-09-23T05:38:53.067Z,8.20
2022-09-23T05:41:23.250Z,8.20
2022-09-23T05:43:54.227Z,8.10
2022-09-23T05:46:30.374Z,8.10
2022-09-23T05:49:02.116Z,8.00
2022-09-23T05:51:31.360Z,8.10
2022-09-23T05:53:59.648Z,8.10
2022-09-23T05:56:28.324Z,8.20
2022-09-23T05:58:57.177Z,8.10
2022-09-23T06:01:26.362Z,8.20
2022-09-23T06:03:54.698Z,8.20
2022-09-23T06:06:27.255Z,8.20
2022-09-23T06:08:53.898Z,8.40
2022-09-23T06:11:21.538Z,8.50
2022-09-23T06:13:49.301Z,8.60
2022-09-23T06:16:16.751Z,8.70
2022-09-23T06:18:45.867Z,8.80
2022-09-23T06:21:14.760Z,8.70
2022-09-23T06:23:42.696Z,8.70
2022-09-23T06:26:12.173Z,8.80
2022-09-23T06:28:41.825Z,8.80
2022-09-23T06:31:13.993Z,8.80
2022-09-23T06:33:42.416Z,8.80
2022-09-23T06:36:10.179Z,8.80
2022-09-23T06:38:49.388Z,8.60
2022-09-23T06:41:16.616Z,8.70
2022-09-23T06:43:43.256Z,8.60
2022-09-23T06:46:13.820Z,8.50
2022-09-23T06:48:44.091Z,8.40
2022-09-23T06:51:20.291Z,8.40
2022-09-23T06:53:48.185Z,8.60
2022-09-23T06:56:16.748Z,8.70
2022-09-23T06:58:43.803Z,8.80
2022-09-23T07:01:13.001Z,8.90
2022-09-23T07:03:39.969Z,9.00
2022-09-23T07:06:07.317Z,9.20
2022-09-23T07:08:35.179Z,9.20
2022-09-23T07:11:04.870Z,9.30
2022-09-23T07:13:33.394Z,9.30
2022-09-23T07:16:04.612Z,9.40
2022-09-23T07:18:36.826Z,9.50
2022-09-23T07:21:18.098Z,9.50
2022-09-23T07:23:50.390Z,9.50
2022-09-23T07:26:18.234Z,9.60
2022-09-23T07:28:45.477Z,9.60
2022-09-23T07:31:22.713Z,9.70
2022-09-23T07:33:57.203Z,9.80
2022-09-23T07:36:24.148Z,9.80
2022-09-23T07:38:51.202Z,9.80
2022-09-23T07:41:19.275Z,10.00
2022-09-23T07:43:46.432Z,10.00
2022-09-23T07:46:16.842Z,10.10
2022-09-23T07:48:44.678Z,10.10
2022-09-23T07:51:20.264Z,10.10
2022-09-23T07:53:51.961Z,10.00
2022-09-23T07:56:20.239Z,10.10
2022-09-23T07:59:00.483Z,10.10
2022-09-23T08:01:36.028Z,10.20
2022-09-23T08:04:06.831Z,10.30
2022-09-23T08:06:33.720Z,10.30
2022-09-23T08:09:01.109Z,10.40
2022-09-23T08:11:28.537Z,10.70
2022-09-23T08:13:55.864Z,10.80
2022-09-23T08:16:22.591Z,11.00
2022-09-23T08:18:49.516Z,11.00
2022-09-23T08:21:23.261Z,10.90
2022-09-23T08:23:50.902Z,11.00
2022-09-23T08:26:21.408Z,11.00
2022-09-23T08:28:48.927Z,11.00
2022-09-23T08:31:15.728Z,11.10
2022-09-23T08:33:42.975Z,11.30
2022-09-23T08:36:09.660Z,11.30
2022-09-23T08:38:36.320Z,11.20
2022-09-23T08:41:24.828Z,11.30
2022-09-23T08:43:59.912Z,11.30
2022-09-23T08:46:32.157Z,11.50
2022-09-23T08:49:01.245Z,11.50
2022-09-23T08:51:46.247Z,11.50
2022-09-23T08:54:13.982Z,11.70
2022-09-23T08:56:44.419Z,11.70
2022-09-23T08:59:49.804Z,11.80
2022-09-23T09:02:21.457Z,12.10
2022-09-23T09:04:53.746Z,12.10
2022-09-23T09:07:36.527Z,12.10
2022-09-23T09:10:13.233Z,12.30
2022-09-23T09:12:45.187Z,12.30
2022-09-23T09:15:29.189Z,12.40
2022-09-23T09:18:06.767Z,12.50
2022-09-23T09:20:34.994Z,12.50
2022-09-23T09:23:25.548Z,12.70
2022-09-23T09:26:01.393Z,12.80
2022-09-23T09:28:35.710Z,12.70
2022-09-23T09:31:14.496Z,12.80
2022-09-23T09:33:47.185Z,12.90
2022-09-23T09:36:44.743Z,13.00
2022-09-23T09:39:13.857Z,13.00
2022-09-23T09:41:52.361Z,13.10
2022-09-23T09:44:37.337Z,13.20
2022-09-23T09:47:28.488Z,13.50
2022-09-23T09:50:04.552Z,13.60
2022-09-23T09:52:31.785Z,13.60
2022-09-23T09:55:13.674Z,13.60
2022-09-23T09:57:53.722Z,13.90
2022-09-23T10:00:26.532Z,14.00
2022-09-23T10:02:59.320Z,13.90
2022-09-23T10:05:52.392Z,13.90
2022-09-23T10:08:33.458Z,14.00
2022-09-23T10:11:20.600Z,14.20
2022-09-23T10:14:17.621Z,14.40
2022-09-23T10:17:01.874Z,14.60
2022-09-23T10:19:29.503Z,14.70
2022-09-23T10:22:00.142Z,14.70
2022-09-23T10:24:30.487Z,14.90
2022-09-23T10:27:11.258Z,15.00
2022-09-23T10:29:48.899Z,15.10
2022-09-23T10:32:31.632Z,15.40
2022-09-23T10:35:01.299Z,15.50
2022-09-23T10:37:36.563Z,15.60
2022-09-23T10:40:40.445Z,15.60
2022-09-23T10:43:53.388Z,15.70
2022-09-23T10:46:38.879Z,16.00
2022-09-23T10:49:33.706Z,16.30
2022-09-23T10:52:22.216Z,16.20
2022-09-23T10:55:10.161Z,16.40
2022-09-23T10:57:42.876Z,16.40
2022-09-23T11:00:28.226Z,16.40
2022-09-23T11:03:22.192Z,16.60
2022-09-23T11:06:18.250Z,17.00
2022-09-23T11:09:06.564Z,17.00
2022-09-23T11:12:09.136Z,16.90
2022-09-23T11:15:02.406Z,16.90
2022-09-23T11:17:50.661Z,17.10
2022-09-23T11:20:27.403Z,17.30
2022-09-23T11:23:19.699Z,17.40
2022-09-23T11:26:10.340Z,17.50
2022-09-23T11:28:55.441Z,17.60
2022-09-23T11:31:31.431Z,17.90
2022-09-23T11:33:58.015Z,17.80
2022-09-23T11:36:37.784Z,18.00
2022-09-23T11:39:19.202Z,17.90
2022-09-23T11:41:47.387Z,17.90
2022-09-23T11:44:22.807Z,18.00
2022-09-23T11:47:01.560Z,18.10
2022-09-23T11:49:37.136Z,18.40
2022-09-23T11:52:21.726Z,18.50
2022-09-23T11:55:22.315Z,18.00
2022-09-23T11:57:56.964Z,18.20
2022-09-23T12:00:27.333Z,18.20
2022-09-23T12:03:36.338Z,18.40
2022-09-23T12:06:15.056Z,18.50
2022-09-23T12:08:41.707Z,18.50
2022-09-23T12:11:27.225Z,18.70
2022-09-23T12:14:31.078Z,18.60
2022-09-23T12:17:27.959Z,18.90
2022-09-23T12:20:22.275Z,19.10
2022-09-23T12:22:55.195Z,19.20
2022-09-23T12:25:26.602Z,19.20
2022-09-23T12:27:56.085Z,18.90
2022-09-23T12:30:28.365Z,19.10
2022-09-23T12:33:14.793Z,19.20
2022-09-23T12:35:45.511Z,19.20
2022-09-23T12:38:33.354Z,18.90
2022-09-23T12:41:00.391Z,18.70
2022-09-23T12:43:32.055Z,18.70
2022-09-23T12:46:21.699Z,19.00
2022-09-23T12:48:58.003Z,18.80
2022-09-23T12:51:26.885Z,18.60
2022-09-23T12:54:05.713Z,18.70
2022-09-23T12:56:38.719Z,18.90
2022-09-23T12:59:17.538Z,18.70
2022-09-23T13:01:45.150Z,18.70
2022-09-23T13:05:13.681Z,18.50
2022-09-23T13:07:45.469Z,18.30
2022-09-23T13:10:27.690Z,18.50
2022-09-23T13:12:55.869Z,18.90
2022-09-23T13:15:31.461Z,19.10
2022-09-23T13:18:23.129Z,19.20
2022-09-23T13:20:56.894Z,19.10
2022-09-23T13:23:33.824Z,18.90
2022-09-23T13:26:09.089Z,18.70
2022-09-23T13:28:53.520Z,18.50
2022-09-23T13:31:21.237Z,18.40
2022-09-23T13:33:52.573Z,18.40
2022-09-23T13:36:21.086Z,18.40
2022-09-23T13:38:48.300Z,18.30
2022-09-23T13:41:23.938Z,18.40
2022-09-23T13:43:55.280Z,18.40
2022-09-23T13:46:26.287Z,18.60
2022-09-23T13:48:54.901Z,18.50
2022-09-23T13:51:33.953Z,18.50
2022-09-23T13:54:03.473Z,18.70
2022-09-23T13:56:32.500Z,18.90
2022-09-23T13:59:26.268Z,19.10
2022-09-23T14:02:16.882Z,18.90
2022-09-23T14:04:43.951Z,18.90
2022-09-23T14:07:13.288Z,19.00
2022-09-23T14:09:45.972Z,19.00
2022-09-23T14:12:13.056Z,18.90
2022-09-23T14:14:41.423Z,18.80
2022-09-23T14:17:10.276Z,18.80
2022-09-23T14:19:37.337Z,18.70
2022-09-23T14:22:04.145Z,18.60
2022-09-23T14:24:38.278Z,18.50
2022-09-23T14:27:14.166Z,18.60
2022-09-23T14:29:44.214Z,18.60
2022-09-23T14:32:21.232Z,18.70
2022-09-23T14:35:00.622Z,18.70
2022-09-23T14:37:54.955Z,18.70
2022-09-23T14:40:37.615Z,18.70
2022-09-23T14:43:19.273Z,18.60
2022-09-23T14:45:50.353Z,18.60
2022-09-23T14:48:22.798Z,18.70
2022-09-23T14:50:52.441Z,18.60
2022-09-23T14:53:19.086Z,18.50
2022-09-23T14:55:47.073Z,18.50
2022-09-23T14:58:18.238Z,18.50
2022-09-23T15:00:59.891Z,18.40
2022-09-23T15:03:28.427Z,18.40
2022-09-23T15:06:08.350Z,18.40
2022-09-23T15:08:36.528Z,18.40
2022-09-23T15:11:08.189Z,18.30
2022-09-23T15:13:40.402Z,18.20
2022-09-23T15:16:07.688Z,18.20
2022-09-23T15:18:41.139Z,18.20
2022-09-23T15:21:09.525Z,18.20
2022-09-23T15:23:48.035Z,18.20
2022-09-23T15:26:15.915Z,18.20
2022-09-23T15:28:43.760Z,18.10
2022-09-23T15:31:16.023Z,18.20
2022-09-23T15:33:47.638Z,18.10
2022-09-23T15:36:22.886Z,18.20
2022-09-23T15:38:49.826Z,18.20
2022-09-23T15:41:17.408Z,18.20
2022-09-23T15:43:44.158Z,18.20
2022-09-23T15:46:25.131Z,18.10
2022-09-23T15:49:05.460Z,18.10
2022-09-23T15:51:32.207Z,18.00
2022-09-23T15:53:58.925Z,17.90
2022-09-23T15:56:27.142Z,17.90
2022-09-23T15:58:53.866Z,17.90
2022-09-23T16:01:31.973Z,17.80
2022-09-23T16:04:01.335Z,17.90
2022-09-23T16:06:28.181Z,17.80
2022-09-23T16:08:55.679Z,17.70
2022-09-23T16:11:31.588Z,17.60
2022-09-23T16:13:59.598Z,17.60
2022-09-23T16:16:27.826Z,17.50
2022-09-23T16:18:55.342Z,17.50
2022-09-23T16:21:26.243Z,17.50
2022-09-23T16:23:54.429Z,17.40
2022-09-23T16:26:24.268Z,17.40
2022-09-23T16:28:54.534Z,17.40
2022-09-23T16:31:25.093Z,17.30
2022-09-23T16:33:53.161Z,17.30
2022-09-23T16:36:27.290Z,17.30
2022-09-23T16:38:57.808Z,17.30
2022-09-23T16:41:25.773Z,17.20
2022-09-23T16:43:53.568Z,17.10
2022-09-23T16:46:21.021Z,17.10
2022-09-23T16:48:52.374Z,16.90
2022-09-23T16:51:21.934Z,16.80
2022-09-23T16:53:50.246Z,16.80
2022-09-23T16:56:24.254Z,16.70
2022-09-23T16:58:54.892Z,16.70
2022-09-23T17:01:44.888Z,16.60
2022-09-23T17:04:13.657Z,16.60
2022-09-23T17:06:51.939Z,16.50
2022-09-23T17:09:27.060Z,16.50
2022-09-23T17:12:09.546Z,16.50
2022-09-23T17:14:36.228Z,16.50
2022-09-23T17:17:02.880Z,16.40
2022-09-23T17:19:29.555Z,16.40
2022-09-23T17:21:56.189Z,16.30
2022-09-23T17:24:22.930Z,16.30
2022-09-23T17:26:53.032Z,16.30
2022-09-23T17:29:20.253Z,16.30
2022-09-23T17:31:46.998Z,16.20
2022-09-23T17:34:13.929Z,16.10
2022-09-23T17:36:40.667Z,16.00
2022-09-23T17:39:07.498Z,16.00
2022-09-23T17:41:34.268Z,16.00
2022-09-23T17:44:01.468Z,15.90
2022-09-23T17:46:30.060Z,15.90
2022-09-23T17:48:57.561Z,15.80
2022-09-23T17:51:27.176Z,15.80
2022-09-23T17:53:53.916Z,15.70
2022-09-23T17:56:23.043Z,15.60
2022-09-23T17:58:50.300Z,15.60
2022-09-23T18:01:25.705Z,15.50
2022-09-23T18:03:57.391Z,15.50
2022-09-23T18:06:26.236Z,15.50
2022-09-23T18:08:53.336Z,15.50
2022-09-23T18:11:22.404Z,15.40
2022-09-23T18:13:57.042Z,15.40
2022-09-23T18:16:29.735Z,15.30
2022-09-23T18:18:59.042Z,15.30
2022-09-23T18:21:28.171Z,15.20
2022-09-23T18:23:59.774Z,15.20
2022-09-23T18:26:33.940Z,15.10
2022-09-23T18:29:01.535Z,15.10
2022-09-23T18:31:32.582Z,15.10
2022-09-23T18:34:00.100Z,15.00
2022-09-23T18:36:27.973Z,15.00
2022-09-23T18:38:55.460Z,15.00
2022-09-23T18:41:22.143Z,14.90
2022-09-23T18:43:49.343Z,14.90
2022-09-23T18:46:18.422Z,14.80
2022-09-23T18:49:04.377Z,14.70
2022-09-23T18:51:32.581Z,14.70
2022-09-23T18:54:01.472Z,14.70
2022-09-23T18:56:37.035Z,14.70
2022-09-23T18:59:06.239Z,14.60
2022-09-23T19:01:33.438Z,14.70
2022-09-23T19:04:02.492Z,14.60
2022-09-23T19:06:31.665Z,14.60
2022-09-23T19:08:58.583Z,14.50
2022-09-23T19:11:25.367Z,14.50
2022-09-23T19:13:57.111Z,14.40
2022-09-23T19:16:25.733Z,14.40
2022-09-23T19:18:52.896Z,14.40
2022-09-23T19:21:22.113Z,14.40
2022-09-23T19:23:51.578Z,14.40
2022-09-23T19:26:21.672Z,14.50
2022-09-23T19:28:50.429Z,14.40
2022-09-23T19:31:22.160Z,14.30
2022-09-23T19:33:59.176Z,14.30
2022-09-23T19:36:31.730Z,14.30
2022-09-23T19:39:04.242Z,14.30
2022-09-23T19:41:32.142Z,14.20
2022-09-23T19:44:02.393Z,14.20
2022-09-23T19:46:39.472Z,14.10
2022-09-23T19:49:07.433Z,14.10
2022-09-23T19:51:34.899Z,14.00
2022-09-23T19:54:03.237Z,13.90
2022-09-23T19:56:32.287Z,13.90
2022-09-23T19:58:59.744Z,13.80
2022-09-23T20:01:28.524Z,13.70
2022-09-23T20:03:55.638Z,13.70
2022-09-23T20:06:22.369Z,13.70
2022-09-23T20:08:49.813Z,13.70
2022-09-23T20:11:18.865Z,13.60
2022-09-23T20:13:49.377Z,13.70
2022-09-23T20:16:18.674Z,13.60
2022-09-23T20:18:46.755Z,13.60
2022-09-23T20:21:15.190Z,13.80
2022-09-23T20:23:42.526Z,13.80
2022-09-23T20:26:28.790Z,13.70
2022-09-23T20:28:55.688Z,13.70
2022-09-23T20:31:23.414Z,13.80
2022-09-23T20:34:00.399Z,13.70
2022-09-23T20:36:28.882Z,13.60
2022-09-23T20:38:57.506Z,13.50
2022-09-23T20:41:24.175Z,13.40
2022-09-23T20:43:54.672Z,13.30
2022-09-23T20:46:24.228Z,13.30
2022-09-23T20:48:51.130Z,13.30
2022-09-23T20:51:17.871Z,13.50
2022-09-23T20:53:45.763Z,13.50
2022-09-23T20:56:14.978Z,13.50
2022-09-23T20:58:43.069Z,13.30
2022-09-23T21:01:10.996Z,13.30
2022-09-23T21:03:40.574Z,13.20
2022-09-23T21:06:09.088Z,13.10
2022-09-23T21:08:37.369Z,13.20
2022-09-23T21:11:10.361Z,13.20
2022-09-23T21:13:37.495Z,13.20
2022-09-23T21:16:06.897Z,13.20
2022-09-23T21:18:35.197Z,13.20
2022-09-23T21:21:02.080Z,13.20
2022-09-23T21:23:33.867Z,13.00
2022-09-23T21:26:04.547Z,12.90
2022-09-23T21:28:36.509Z,12.90
2022-09-23T21:31:17.579Z,12.80
2022-09-23T21:33:44.614Z,12.70
2022-09-23T21:36:11.292Z,12.70
2022-09-23T21:38:38.016Z,12.70
2022-09-23T21:41:07.464Z,12.70
2022-09-23T21:43:37.327Z,12.70
2022-09-23T21:46:10.337Z,12.60
2022-09-23T21:48:41.312Z,12.60
2022-09-23T21:51:15.679Z,12.70
2022-09-23T21:53:44.507Z,12.80
2022-09-23T21:56:20.473Z,12.90
2022-09-23T21:58:47.869Z,12.90
2022-09-23T22:01:16.085Z,12.80
2022-09-23T22:03:44.305Z,12.90
2022-09-23T22:06:13.834Z,12.90
2022-09-23T22:08:42.516Z,13.00
2022-09-23T22:11:34.415Z,13.00
2022-09-23T22:14:03.854Z,13.00
2022-09-23T22:16:30.665Z,13.10
2022-09-23T22:19:00.118Z,13.00
2022-09-23T22:21:29.917Z,12.90
2022-09-23T22:24:01.128Z,13.00
2022-09-23T22:26:48.106Z,12.90
2022-09-23T22:29:34.705Z,12.90
2022-09-23T22:32:21.566Z,12.90
2022-09-23T22:34:51.065Z,13.00
2022-09-23T22:37:25.711Z,13.10
2022-09-23T22:39:53.403Z,13.10
2022-09-23T22:42:22.377Z,13.10
2022-09-23T22:44:50.029Z,13.10
2022-09-23T22:47:20.314Z,13.10
2022-09-23T22:49:47.799Z,13.10
2022-09-23T22:52:20.783Z,13.10
2022-09-23T22:54:47.522Z,13.10
2022-09-23T22:57:15.288Z,13.00
2022-09-23T22:59:43.876Z,12.80
2022-09-23T23:02:10.518Z,12.80
2022-09-23T23:04:37.221Z,12.90
2022-09-23T23:07:06.004Z,13.00
2022-09-23T23:09:32.805Z,13.00
2022-09-23T23:11:59.453Z,12.90
2022-09-23T23:14:27.889Z,12.80
2022-09-23T23:16:55.034Z,12.80
2022-09-23T23:19:21.919Z,12.90
2022-09-23T23:21:50.089Z,12.90
2022-09-23T23:24:22.731Z,12.90
2022-09-23T23:26:50.800Z,12.70
2022-09-23T23:29:19.736Z,12.80
2022-09-23T23:31:47.161Z,12.80
2022-09-23T23:34:19.331Z,12.80
2022-09-23T23:36:47.906Z,12.80
2022-09-23T23:39:14.630Z,12.90
2022-09-23T23:41:41.615Z,12.80
2022-09-23T23:44:09.077Z,12.70
2022-09-23T23:46:37.229Z,12.70
2022-09-23T23:49:04.880Z,12.70
2022-09-23T23:51:31.658Z,12.80
2022-09-23T23:53:59.870Z,12.70
2022-09-23T23:56:27.609Z,12.60
2022-09-23T23:58:59.421Z,12.60
